sensor_id;sensor_type;location;lat;lon;timestamp;temperature;humidity
30572;DHT22;17348;50.948;10.696;2023-04-02T00:02:32;7.00;99.90
30572;DHT22;17348;50.948;10.696;2023-04-02T00:05:40;7.00;99.90
30572;DHT22;17348;50.948;10.696;2023-04-02T00:08:52;6.90;99.90
30572;DHT22;17348;50.948;10.696;2023-04-02T00:12:14;6.90;99.90
30572;DHT22;17348;50.948;10.696;2023-04-02T00:15:18;6.90;99.90
30572;DHT22;17348;50.948;10.696;2023-04-02T00:18:22;6.90;99.90
30572;DHT22;17348;50.948;10.696;2023-04-02T00:21:27;6.80;99.90
30572;DHT22;17348;50.948;10.696;2023-04-02T00:24:32;6.80;99.90
30572;DHT22;17348;50.948;10.696;2023-04-02T00:27:35;6.80;99.90
30572;DHT22;17348;50.948;10.696;2023-04-02T00:30:37;6.70;99.90
30572;DHT22;17348;50.948;10.696;2023-04-02T00:33:48;6.70;99.90
30572;DHT22;17348;50.948;10.696;2023-04-02T00:36:51;6.70;99.90
30572;DHT22;17348;50.948;10.696;2023-04-02T00:39:59;6.70;99.90
30572;DHT22;17348;50.948;10.696;2023-04-02T00:43:07;6.60;99.90
30572;DHT22;17348;50.948;10.696;2023-04-02T00:46:19;6.50;99.90
30572;DHT22;17348;50.948;10.696;2023-04-02T00:49:30;6.50;99.90
30572;DHT22;17348;50.948;10.696;2023-04-02T00:52:34;6.30;99.90
30572;DHT22;17348;50.948;10.696;2023-04-02T00:55:38;6.30;99.90
30572;DHT22;17348;50.948;10.696;2023-04-02T00:58:42;6.20;99.90
30572;DHT22;17348;50.948;10.696;2023-04-02T01:01:50;6.20;99.90
30572;DHT22;17348;50.948;10.696;2023-04-02T01:04:57;6.20;99.90
30572;DHT22;17348;50.948;10.696;2023-04-02T01:08:06;6.10;99.90
30572;DHT22;17348;50.948;10.696;2023-04-02T01:11:21;6.00;99.90
30572;DHT22;17348;50.948;10.696;2023-04-02T01:14:41;5.90;99.90
30572;DHT22;17348;50.948;10.696;2023-04-02T01:17:58;5.90;99.90
30572;DHT22;17348;50.948;10.696;2023-04-02T01:21:32;5.80;99.90
30572;DHT22;17348;50.948;10.696;2023-04-02T01:24:36;5.80;99.90
30572;DHT22;17348;50.948;10.696;2023-04-02T01:27:43;5.80;99.90
30572;DHT22;17348;50.948;10.696;2023-04-02T01:30:51;5.70;99.90
30572;DHT22;17348;50.948;10.696;2023-04-02T01:33:55;5.70;99.90
30572;DHT22;17348;50.948;10.696;2023-04-02T01:37:10;5.70;99.90
30572;DHT22;17348;50.948;10.696;2023-04-02T01:40:30;5.70;99.90
30572;DHT22;17348;50.948;10.696;2023-04-02T01:43:37;5.60;99.90
30572;DHT22;17348;50.948;10.696;2023-04-02T01:46:47;5.60;99.90
30572;DHT22;17348;50.948;10.696;2023-04-02T01:49:52;5.60;99.90
30572;DHT22;17348;50.948;10.696;2023-04-02T01:52:59;5.60;99.90
30572;DHT22;17348;50.948;10.696;2023-04-02T01:56:02;5.50;99.90
30572;DHT22;17348;50.948;10.696;2023-04-02T01:59:08;5.50;99.90
30572;DHT22;17348;50.948;10.696;2023-04-02T02:02:13;5.40;99.90
30572;DHT22;17348;50.948;10.696;2023-04-02T02:05:17;5.40;99.90
30572;DHT22;17348;50.948;10.696;2023-04-02T02:08:31;5.40;99.90
30572;DHT22;17348;50.948;10.696;2023-04-02T02:11:37;5.40;99.90
30572;DHT22;17348;50.948;10.696;2023-04-02T02:14:45;5.40;99.90
30572;DHT22;17348;50.948;10.696;2023-04-02T02:17:49;5.30;99.90
30572;DHT22;17348;50.948;10.696;2023-04-02T02:20:56;5.30;99.90
30572;DHT22;17348;50.948;10.696;2023-04-02T02:24:01;5.30;99.90
30572;DHT22;17348;50.948;10.696;2023-04-02T02:27:24;5.30;99.90
30572;DHT22;17348;50.948;10.696;2023-04-02T02:30:36;5.30;99.90
30572;DHT22;17348;50.948;10.696;2023-04-02T02:33:42;5.30;99.90
30572;DHT22;17348;50.948;10.696;2023-04-02T02:36:51;5.30;99.90
30572;DHT22;17348;50.948;10.696;2023-04-02T02:39:57;5.20;99.90
30572;DHT22;17348;50.948;10.696;2023-04-02T02:43:03;5.20;99.90
30572;DHT22;17348;50.948;10.696;2023-04-02T02:46:07;5.10;99.90
30572;DHT22;17348;50.948;10.696;2023-04-02T02:49:16;5.10;99.90
30572;DHT22;17348;50.948;10.696;2023-04-02T02:52:21;5.10;99.90
30572;DHT22;17348;50.948;10.696;2023-04-02T02:55:27;5.10;99.90
30572;DHT22;17348;50.948;10.696;2023-04-02T02:58:33;5.10;99.90
30572;DHT22;17348;50.948;10.696;2023-04-02T03:01:36;5.10;99.90
30572;DHT22;17348;50.948;10.696;2023-04-02T03:04:40;5.00;99.90
30572;DHT22;17348;50.948;10.696;2023-04-02T03:07:48;4.90;99.90
30572;DHT22;17348;50.948;10.696;2023-04-02T03:10:59;4.80;99.90
30572;DHT22;17348;50.948;10.696;2023-04-02T03:14:13;4.70;99.90
30572;DHT22;17348;50.948;10.696;2023-04-02T03:17:20;4.70;99.90
30572;DHT22;17348;50.948;10.696;2023-04-02T03:20:33;4.70;99.90
30572;DHT22;17348;50.948;10.696;2023-04-02T03:23:41;4.70;99.90
30572;DHT22;17348;50.948;10.696;2023-04-02T03:26:48;4.70;99.90
30572;DHT22;17348;50.948;10.696;2023-04-02T03:30:00;4.60;99.90
30572;DHT22;17348;50.948;10.696;2023-04-02T03:33:08;4.60;99.90
30572;DHT22;17348;50.948;10.696;2023-04-02T03:36:18;4.50;99.90
30572;DHT22;17348;50.948;10.696;2023-04-02T03:39:25;4.40;99.90
30572;DHT22;17348;50.948;10.696;2023-04-02T03:42:38;4.40;99.90
30572;DHT22;17348;50.948;10.696;2023-04-02T03:45:45;4.40;99.90
30572;DHT22;17348;50.948;10.696;2023-04-02T03:48:51;4.40;99.90
30572;DHT22;17348;50.948;10.696;2023-04-02T03:51:59;4.40;99.90
30572;DHT22;17348;50.948;10.696;2023-04-02T03:55:10;4.30;99.90
30572;DHT22;17348;50.948;10.696;2023-04-02T03:58:19;4.30;99.90
30572;DHT22;17348;50.948;10.696;2023-04-02T04:01:26;4.20;99.90
30572;DHT22;17348;50.948;10.696;2023-04-02T04:04:32;4.10;99.90
30572;DHT22;17348;50.948;10.696;2023-04-02T04:07:39;4.10;99.90
30572;DHT22;17348;50.948;10.696;2023-04-02T04:10:43;4.00;99.90
30572;DHT22;17348;50.948;10.696;2023-04-02T04:13:49;4.00;99.90
30572;DHT22;17348;50.948;10.696;2023-04-02T04:16:57;4.00;99.90
30572;DHT22;17348;50.948;10.696;2023-04-02T04:20:04;3.90;99.90
30572;DHT22;17348;50.948;10.696;2023-04-02T04:23:18;3.90;99.90
30572;DHT22;17348;50.948;10.696;2023-04-02T04:26:32;3.90;99.90
30572;DHT22;17348;50.948;10.696;2023-04-02T04:29:44;3.90;99.90
30572;DHT22;17348;50.948;10.696;2023-04-02T04:32:52;3.80;99.90
30572;DHT22;17348;50.948;10.696;2023-04-02T04:35:59;3.80;99.90
30572;DHT22;17348;50.948;10.696;2023-04-02T04:39:10;3.70;99.90
30572;DHT22;17348;50.948;10.696;2023-04-02T04:42:18;3.70;99.90
30572;DHT22;17348;50.948;10.696;2023-04-02T04:45:37;3.70;99.90
30572;DHT22;17348;50.948;10.696;2023-04-02T04:48:49;3.70;99.90
30572;DHT22;17348;50.948;10.696;2023-04-02T04:51:57;3.70;99.90
30572;DHT22;17348;50.948;10.696;2023-04-02T04:55:02;3.60;99.90
30572;DHT22;17348;50.948;10.696;2023-04-02T04:58:14;3.60;99.90
30572;DHT22;17348;50.948;10.696;2023-04-02T05:01:23;3.60;99.90
30572;DHT22;17348;50.948;10.696;2023-04-02T05:04:32;3.70;99.90
30572;DHT22;17348;50.948;10.696;2023-04-02T05:07:44;3.60;99.90
30572;DHT22;17348;50.948;10.696;2023-04-02T05:10:55;3.60;99.90
30572;DHT22;17348;50.948;10.696;2023-04-02T05:14:01;3.70;99.90
30572;DHT22;17348;50.948;10.696;2023-04-02T05:17:07;3.60;99.90
30572;DHT22;17348;50.948;10.696;2023-04-02T05:20:15;3.60;99.90
30572;DHT22;17348;50.948;10.696;2023-04-02T05:23:24;3.60;99.90
30572;DHT22;17348;50.948;10.696;2023-04-02T05:26:30;3.50;99.90
30572;DHT22;17348;50.948;10.696;2023-04-02T05:29:35;3.50;99.90
30572;DHT22;17348;50.948;10.696;2023-04-02T05:32:42;3.50;99.90
30572;DHT22;17348;50.948;10.696;2023-04-02T05:35:47;3.50;99.90
30572;DHT22;17348;50.948;10.696;2023-04-02T05:38:53;3.40;99.90
30572;DHT22;17348;50.948;10.696;2023-04-02T05:42:00;3.30;99.90
30572;DHT22;17348;50.948;10.696;2023-04-02T05:45:12;3.30;99.90
30572;DHT22;17348;50.948;10.696;2023-04-02T05:48:19;3.30;99.90
30572;DHT22;17348;50.948;10.696;2023-04-02T05:51:26;3.30;99.90
30572;DHT22;17348;50.948;10.696;2023-04-02T05:54:33;3.30;99.90
30572;DHT22;17348;50.948;10.696;2023-04-02T05:57:43;3.20;99.90
30572;DHT22;17348;50.948;10.696;2023-04-02T06:01:10;3.20;99.90
30572;DHT22;17348;50.948;10.696;2023-04-02T06:04:21;3.20;99.90
30572;DHT22;17348;50.948;10.696;2023-04-02T06:07:28;3.30;99.90
30572;DHT22;17348;50.948;10.696;2023-04-02T06:10:34;3.30;99.90
30572;DHT22;17348;50.948;10.696;2023-04-02T06:13:38;3.30;99.90
30572;DHT22;17348;50.948;10.696;2023-04-02T06:16:42;3.30;99.90
30572;DHT22;17348;50.948;10.696;2023-04-02T06:19:46;3.30;99.90
30572;DHT22;17348;50.948;10.696;2023-04-02T06:22:51;3.20;99.90
30572;DHT22;17348;50.948;10.696;2023-04-02T06:25:59;3.20;99.90
30572;DHT22;17348;50.948;10.696;2023-04-02T06:29:07;3.10;99.90
30572;DHT22;17348;50.948;10.696;2023-04-02T06:32:12;3.00;99.90
30572;DHT22;17348;50.948;10.696;2023-04-02T06:35:14;3.00;99.90
30572;DHT22;17348;50.948;10.696;2023-04-02T06:38:19;2.90;99.90
30572;DHT22;17348;50.948;10.696;2023-04-02T06:41:25;2.90;99.90
30572;DHT22;17348;50.948;10.696;2023-04-02T06:44:31;2.90;99.90
30572;DHT22;17348;50.948;10.696;2023-04-02T06:47:36;2.90;99.90
30572;DHT22;17348;50.948;10.696;2023-04-02T06:50:46;2.90;99.90
30572;DHT22;17348;50.948;10.696;2023-04-02T06:53:49;2.90;99.90
30572;DHT22;17348;50.948;10.696;2023-04-02T06:56:53;2.90;99.90
30572;DHT22;17348;50.948;10.696;2023-04-02T06:59:57;2.90;99.90
30572;DHT22;17348;50.948;10.696;2023-04-02T07:03:01;2.90;99.90
30572;DHT22;17348;50.948;10.696;2023-04-02T07:06:13;2.80;99.90
30572;DHT22;17348;50.948;10.696;2023-04-02T07:09:16;2.90;99.90
30572;DHT22;17348;50.948;10.696;2023-04-02T07:12:21;2.90;99.90
30572;DHT22;17348;50.948;10.696;2023-04-02T07:15:26;2.90;99.90
30572;DHT22;17348;50.948;10.696;2023-04-02T07:18:30;3.00;99.90
30572;DHT22;17348;50.948;10.696;2023-04-02T07:21:33;3.00;99.90
30572;DHT22;17348;50.948;10.696;2023-04-02T07:24:35;3.00;99.90
30572;DHT22;17348;50.948;10.696;2023-04-02T07:27:38;3.00;99.90
30572;DHT22;17348;50.948;10.696;2023-04-02T07:30:42;3.00;99.90
30572;DHT22;17348;50.948;10.696;2023-04-02T07:33:45;3.00;99.90
30572;DHT22;17348;50.948;10.696;2023-04-02T07:36:47;3.00;99.90
30572;DHT22;17348;50.948;10.696;2023-04-02T07:39:50;2.90;99.90
30572;DHT22;17348;50.948;10.696;2023-04-02T07:42:52;2.90;99.90
30572;DHT22;17348;50.948;10.696;2023-04-02T07:45:56;3.00;99.90
30572;DHT22;17348;50.948;10.696;2023-04-02T07:49:00;2.90;99.90
30572;DHT22;17348;50.948;10.696;2023-04-02T07:52:02;2.90;99.90
30572;DHT22;17348;50.948;10.696;2023-04-02T07:55:05;3.00;99.90
30572;DHT22;17348;50.948;10.696;2023-04-02T07:58:08;2.90;99.90
30572;DHT22;17348;50.948;10.696;2023-04-02T08:01:17;3.00;99.90
30572;DHT22;17348;50.948;10.696;2023-04-02T08:04:22;3.00;99.90
30572;DHT22;17348;50.948;10.696;2023-04-02T08:07:26;3.00;99.90
30572;DHT22;17348;50.948;10.696;2023-04-02T08:10:28;3.00;99.90
30572;DHT22;17348;50.948;10.696;2023-04-02T08:13:31;2.90;99.90
30572;DHT22;17348;50.948;10.696;2023-04-02T08:16:46;2.90;99.90
30572;DHT22;17348;50.948;10.696;2023-04-02T08:19:48;3.00;99.90
30572;DHT22;17348;50.948;10.696;2023-04-02T08:22:51;3.00;99.90
30572;DHT22;17348;50.948;10.696;2023-04-02T08:25:54;3.00;99.90
30572;DHT22;17348;50.948;10.696;2023-04-02T08:28:56;3.00;99.90
30572;DHT22;17348;50.948;10.696;2023-04-02T08:32:00;3.00;99.90
30572;DHT22;17348;50.948;10.696;2023-04-02T08:35:03;3.00;99.90
30572;DHT22;17348;50.948;10.696;2023-04-02T08:38:05;3.00;99.90
30572;DHT22;17348;50.948;10.696;2023-04-02T08:41:18;3.00;99.90
30572;DHT22;17348;50.948;10.696;2023-04-02T08:44:33;2.90;99.90
30572;DHT22;17348;50.948;10.696;2023-04-02T08:47:40;3.00;99.90
30572;DHT22;17348;50.948;10.696;2023-04-02T08:50:44;3.00;99.90
30572;DHT22;17348;50.948;10.696;2023-04-02T08:53:47;3.00;99.90
30572;DHT22;17348;50.948;10.696;2023-04-02T08:56:54;3.10;99.90
30572;DHT22;17348;50.948;10.696;2023-04-02T09:00:04;3.10;99.90
30572;DHT22;17348;50.948;10.696;2023-04-02T09:03:14;3.20;99.90
30572;DHT22;17348;50.948;10.696;2023-04-02T09:06:20;3.20;99.90
30572;DHT22;17348;50.948;10.696;2023-04-02T09:09:22;3.20;99.90
30572;DHT22;17348;50.948;10.696;2023-04-02T09:12:27;3.20;99.90
30572;DHT22;17348;50.948;10.696;2023-04-02T09:15:33;3.30;99.90
30572;DHT22;17348;50.948;10.696;2023-04-02T09:18:37;3.30;99.90
30572;DHT22;17348;50.948;10.696;2023-04-02T09:21:41;3.30;99.90
30572;DHT22;17348;50.948;10.696;2023-04-02T09:24:50;3.20;99.90
30572;DHT22;17348;50.948;10.696;2023-04-02T09:27:55;3.30;99.90
30572;DHT22;17348;50.948;10.696;2023-04-02T09:31:02;3.20;99.90
30572;DHT22;17348;50.948;10.696;2023-04-02T09:34:29;3.20;99.90
30572;DHT22;17348;50.948;10.696;2023-04-02T09:37:32;3.20;99.90
30572;DHT22;17348;50.948;10.696;2023-04-02T09:40:41;3.30;99.90
30572;DHT22;17348;50.948;10.696;2023-04-02T09:43:44;3.20;99.90
30572;DHT22;17348;50.948;10.696;2023-04-02T09:46:50;3.20;99.90
30572;DHT22;17348;50.948;10.696;2023-04-02T09:49:54;3.20;99.90
30572;DHT22;17348;50.948;10.696;2023-04-02T09:53:27;3.20;99.90
30572;DHT22;17348;50.948;10.696;2023-04-02T09:56:31;3.20;99.90
30572;DHT22;17348;50.948;10.696;2023-04-02T09:59:34;3.20;99.90
30572;DHT22;17348;50.948;10.696;2023-04-02T10:02:37;3.10;99.90
30572;DHT22;17348;50.948;10.696;2023-04-02T10:05:41;3.00;99.90
30572;DHT22;17348;50.948;10.696;2023-04-02T10:08:44;3.00;99.90
30572;DHT22;17348;50.948;10.696;2023-04-02T10:11:48;3.00;99.90
30572;DHT22;17348;50.948;10.696;2023-04-02T10:14:51;3.10;99.90
30572;DHT22;17348;50.948;10.696;2023-04-02T10:18:00;3.10;99.90
30572;DHT22;17348;50.948;10.696;2023-04-02T10:21:07;3.20;99.90
30572;DHT22;17348;50.948;10.696;2023-04-02T10:24:12;3.20;99.90
30572;DHT22;17348;50.948;10.696;2023-04-02T10:27:21;3.20;99.90
30572;DHT22;17348;50.948;10.696;2023-04-02T10:30:32;3.30;99.90
30572;DHT22;17348;50.948;10.696;2023-04-02T10:33:40;3.30;99.90
30572;DHT22;17348;50.948;10.696;2023-04-02T10:36:49;3.40;99.90
30572;DHT22;17348;50.948;10.696;2023-04-02T10:39:58;3.40;99.90
30572;DHT22;17348;50.948;10.696;2023-04-02T10:46:43;3.50;99.90
30572;DHT22;17348;50.948;10.696;2023-04-02T10:49:56;3.40;99.90
30572;DHT22;17348;50.948;10.696;2023-04-02T10:53:10;3.40;99.90
30572;DHT22;17348;50.948;10.696;2023-04-02T10:56:13;3.40;99.90
30572;DHT22;17348;50.948;10.696;2023-04-02T10:59:18;3.30;99.90
30572;DHT22;17348;50.948;10.696;2023-04-02T11:02:30;3.30;99.90
30572;DHT22;17348;50.948;10.696;2023-04-02T11:05:38;3.30;99.90
30572;DHT22;17348;50.948;10.696;2023-04-02T11:08:47;3.30;99.90
30572;DHT22;17348;50.948;10.696;2023-04-02T11:11:53;3.30;99.90
30572;DHT22;17348;50.948;10.696;2023-04-02T11:14:57;3.30;99.90
30572;DHT22;17348;50.948;10.696;2023-04-02T11:18:00;3.30;99.90
30572;DHT22;17348;50.948;10.696;2023-04-02T11:21:04;3.40;99.90
30572;DHT22;17348;50.948;10.696;2023-04-02T11:24:23;3.40;99.90
30572;DHT22;17348;50.948;10.696;2023-04-02T11:27:27;3.50;99.90
30572;DHT22;17348;50.948;10.696;2023-04-02T11:30:30;3.60;99.90
30572;DHT22;17348;50.948;10.696;2023-04-02T11:33:39;3.60;99.90
30572;DHT22;17348;50.948;10.696;2023-04-02T11:36:59;3.70;99.90
30572;DHT22;17348;50.948;10.696;2023-04-02T11:43:58;3.70;99.90
30572;DHT22;17348;50.948;10.696;2023-04-02T11:47:15;3.70;99.90
30572;DHT22;17348;50.948;10.696;2023-04-02T11:50:28;3.90;99.90
30572;DHT22;17348;50.948;10.696;2023-04-02T11:53:32;4.00;99.90
30572;DHT22;17348;50.948;10.696;2023-04-02T11:56:41;4.00;99.90
30572;DHT22;17348;50.948;10.696;2023-04-02T11:59:57;4.00;99.90
30572;DHT22;17348;50.948;10.696;2023-04-02T12:03:29;4.10;99.90
30572;DHT22;17348;50.948;10.696;2023-04-02T12:06:45;4.10;99.90
30572;DHT22;17348;50.948;10.696;2023-04-02T12:09:51;4.10;99.90
30572;DHT22;17348;50.948;10.696;2023-04-02T12:12:56;4.10;99.90
30572;DHT22;17348;50.948;10.696;2023-04-02T12:16:00;4.10;99.90
30572;DHT22;17348;50.948;10.696;2023-04-02T12:19:07;4.10;99.90
30572;DHT22;17348;50.948;10.696;2023-04-02T12:22:17;4.10;99.90
30572;DHT22;17348;50.948;10.696;2023-04-02T12:25:25;4.10;99.90
30572;DHT22;17348;50.948;10.696;2023-04-02T12:28:31;4.10;99.90
30572;DHT22;17348;50.948;10.696;2023-04-02T12:31:34;4.10;99.90
30572;DHT22;17348;50.948;10.696;2023-04-02T12:34:43;4.20;99.90
30572;DHT22;17348;50.948;10.696;2023-04-02T12:37:51;4.20;99.90
30572;DHT22;17348;50.948;10.696;2023-04-02T12:40:55;4.30;99.90
30572;DHT22;17348;50.948;10.696;2023-04-02T12:44:00;4.40;99.90
30572;DHT22;17348;50.948;10.696;2023-04-02T12:47:06;4.50;99.90
30572;DHT22;17348;50.948;10.696;2023-04-02T12:50:13;4.60;99.90
30572;DHT22;17348;50.948;10.696;2023-04-02T12:53:21;4.60;99.90
30572;DHT22;17348;50.948;10.696;2023-04-02T12:56:25;4.70;99.90
30572;DHT22;17348;50.948;10.696;2023-04-02T12:59:33;4.60;99.90
30572;DHT22;17348;50.948;10.696;2023-04-02T13:02:43;4.60;99.90
30572;DHT22;17348;50.948;10.696;2023-04-02T13:05:48;4.60;99.90
30572;DHT22;17348;50.948;10.696;2023-04-02T13:08:53;4.70;99.90
30572;DHT22;17348;50.948;10.696;2023-04-02T13:11:57;4.80;99.90
30572;DHT22;17348;50.948;10.696;2023-04-02T13:15:03;4.70;99.90
30572;DHT22;17348;50.948;10.696;2023-04-02T13:18:18;4.70;99.90
30572;DHT22;17348;50.948;10.696;2023-04-02T13:21:25;4.70;99.90
30572;DHT22;17348;50.948;10.696;2023-04-02T13:24:30;4.80;99.90
30572;DHT22;17348;50.948;10.696;2023-04-02T13:27:33;4.80;99.90
30572;DHT22;17348;50.948;10.696;2023-04-02T13:30:37;4.80;99.90
30572;DHT22;17348;50.948;10.696;2023-04-02T13:33:40;4.80;99.90
30572;DHT22;17348;50.948;10.696;2023-04-02T13:36:42;4.80;99.90
30572;DHT22;17348;50.948;10.696;2023-04-02T13:39:46;4.80;99.90
30572;DHT22;17348;50.948;10.696;2023-04-02T13:42:49;4.90;99.90
30572;DHT22;17348;50.948;10.696;2023-04-02T13:45:53;4.90;99.90
30572;DHT22;17348;50.948;10.696;2023-04-02T13:48:58;4.90;99.90
30572;DHT22;17348;50.948;10.696;2023-04-02T13:52:02;4.90;99.90
30572;DHT22;17348;50.948;10.696;2023-04-02T13:55:05;4.90;99.90
30572;DHT22;17348;50.948;10.696;2023-04-02T13:58:09;4.90;99.90
30572;DHT22;17348;50.948;10.696;2023-04-02T14:01:13;4.90;99.90
30572;DHT22;17348;50.948;10.696;2023-04-02T14:04:20;4.80;99.90
30572;DHT22;17348;50.948;10.696;2023-04-02T14:07:49;4.80;99.90
30572;DHT22;17348;50.948;10.696;2023-04-02T14:11:15;4.80;99.90
30572;DHT22;17348;50.948;10.696;2023-04-02T14:14:41;4.70;99.90
30572;DHT22;17348;50.948;10.696;2023-04-02T14:18:03;4.70;99.90
30572;DHT22;17348;50.948;10.696;2023-04-02T14:21:13;4.70;99.90
30572;DHT22;17348;50.948;10.696;2023-04-02T14:24:19;4.80;99.90
30572;DHT22;17348;50.948;10.696;2023-04-02T14:27:30;4.90;99.90
30572;DHT22;17348;50.948;10.696;2023-04-02T14:30:40;4.90;99.90
30572;DHT22;17348;50.948;10.696;2023-04-02T14:33:52;5.00;99.90
30572;DHT22;17348;50.948;10.696;2023-04-02T14:37:03;5.00;99.90
30572;DHT22;17348;50.948;10.696;2023-04-02T14:40:20;5.00;99.90
30572;DHT22;17348;50.948;10.696;2023-04-02T14:43:30;5.00;99.90
30572;DHT22;17348;50.948;10.696;2023-04-02T14:46:36;5.00;99.90
30572;DHT22;17348;50.948;10.696;2023-04-02T14:49:42;5.00;99.90
30572;DHT22;17348;50.948;10.696;2023-04-02T14:52:50;5.10;99.90
30572;DHT22;17348;50.948;10.696;2023-04-02T14:55:56;5.10;99.90
30572;DHT22;17348;50.948;10.696;2023-04-02T14:59:13;5.20;99.90
30572;DHT22;17348;50.948;10.696;2023-04-02T15:02:23;5.10;99.90
30572;DHT22;17348;50.948;10.696;2023-04-02T15:05:39;5.10;99.90
30572;DHT22;17348;50.948;10.696;2023-04-02T15:08:48;5.10;99.90
30572;DHT22;17348;50.948;10.696;2023-04-02T15:11:54;5.10;99.90
30572;DHT22;17348;50.948;10.696;2023-04-02T15:15:06;5.10;99.90
30572;DHT22;17348;50.948;10.696;2023-04-02T15:18:12;5.00;99.90
30572;DHT22;17348;50.948;10.696;2023-04-02T15:21:36;5.10;99.90
30572;DHT22;17348;50.948;10.696;2023-04-02T15:24:45;5.10;99.90
30572;DHT22;17348;50.948;10.696;2023-04-02T15:27:59;5.10;99.90
30572;DHT22;17348;50.948;10.696;2023-04-02T15:31:10;5.20;99.90
30572;DHT22;17348;50.948;10.696;2023-04-02T15:34:21;5.10;99.90
30572;DHT22;17348;50.948;10.696;2023-04-02T15:37:31;5.10;99.90
30572;DHT22;17348;50.948;10.696;2023-04-02T15:40:45;5.10;99.90
30572;DHT22;17348;50.948;10.696;2023-04-02T15:43:56;5.10;99.90
30572;DHT22;17348;50.948;10.696;2023-04-02T15:47:11;5.10;99.90
30572;DHT22;17348;50.948;10.696;2023-04-02T15:50:32;5.20;99.90
30572;DHT22;17348;50.948;10.696;2023-04-02T15:53:45;5.20;99.90
30572;DHT22;17348;50.948;10.696;2023-04-02T15:56:53;5.20;99.90
30572;DHT22;17348;50.948;10.696;2023-04-02T16:00:18;5.30;99.90
30572;DHT22;17348;50.948;10.696;2023-04-02T16:03:38;5.30;99.90
30572;DHT22;17348;50.948;10.696;2023-04-02T16:06:58;5.30;99.90
30572;DHT22;17348;50.948;10.696;2023-04-02T16:10:10;5.30;99.90
30572;DHT22;17348;50.948;10.696;2023-04-02T16:13:17;5.30;99.90
30572;DHT22;17348;50.948;10.696;2023-04-02T16:16:23;5.30;99.90
30572;DHT22;17348;50.948;10.696;2023-04-02T16:19:30;5.40;99.90
30572;DHT22;17348;50.948;10.696;2023-04-02T16:22:35;5.40;99.90
30572;DHT22;17348;50.948;10.696;2023-04-02T16:25:46;5.40;99.90
30572;DHT22;17348;50.948;10.696;2023-04-02T16:29:00;5.40;99.90
30572;DHT22;17348;50.948;10.696;2023-04-02T16:32:09;5.40;99.90
30572;DHT22;17348;50.948;10.696;2023-04-02T16:35:24;5.40;99.90
30572;DHT22;17348;50.948;10.696;2023-04-02T16:38:42;5.50;99.90
30572;DHT22;17348;50.948;10.696;2023-04-02T16:41:57;5.50;99.90
30572;DHT22;17348;50.948;10.696;2023-04-02T16:45:14;5.50;99.90
30572;DHT22;17348;50.948;10.696;2023-04-02T16:48:26;5.50;99.90
30572;DHT22;17348;50.948;10.696;2023-04-02T16:51:38;5.50;99.90
30572;DHT22;17348;50.948;10.696;2023-04-02T16:54:49;5.50;99.90
30572;DHT22;17348;50.948;10.696;2023-04-02T16:58:04;5.50;99.90
30572;DHT22;17348;50.948;10.696;2023-04-02T17:01:17;5.50;99.90
30572;DHT22;17348;50.948;10.696;2023-04-02T17:04:33;5.50;99.90
30572;DHT22;17348;50.948;10.696;2023-04-02T17:07:51;5.50;99.90
30572;DHT22;17348;50.948;10.696;2023-04-02T17:11:05;5.50;99.90
30572;DHT22;17348;50.948;10.696;2023-04-02T17:14:20;5.50;99.90
30572;DHT22;17348;50.948;10.696;2023-04-02T17:17:23;5.40;99.90
30572;DHT22;17348;50.948;10.696;2023-04-02T17:20:26;5.50;99.90
30572;DHT22;17348;50.948;10.696;2023-04-02T17:23:31;5.50;99.90
30572;DHT22;17348;50.948;10.696;2023-04-02T17:26:36;5.50;99.90
30572;DHT22;17348;50.948;10.696;2023-04-02T17:29:43;5.40;99.90
30572;DHT22;17348;50.948;10.696;2023-04-02T17:32:46;5.50;99.90
30572;DHT22;17348;50.948;10.696;2023-04-02T17:35:56;5.40;99.90
30572;DHT22;17348;50.948;10.696;2023-04-02T17:39:10;5.50;99.90
30572;DHT22;17348;50.948;10.696;2023-04-02T17:42:21;5.40;99.90
30572;DHT22;17348;50.948;10.696;2023-04-02T17:45:33;5.40;99.90
30572;DHT22;17348;50.948;10.696;2023-04-02T17:48:42;5.40;99.90
30572;DHT22;17348;50.948;10.696;2023-04-02T17:51:50;5.40;99.90
30572;DHT22;17348;50.948;10.696;2023-04-02T17:55:03;5.40;99.90
30572;DHT22;17348;50.948;10.696;2023-04-02T17:58:22;5.40;99.90
30572;DHT22;17348;50.948;10.696;2023-04-02T18:01:32;5.40;99.90
30572;DHT22;17348;50.948;10.696;2023-04-02T18:04:40;5.40;99.90
30572;DHT22;17348;50.948;10.696;2023-04-02T18:07:51;5.40;99.90
30572;DHT22;17348;50.948;10.696;2023-04-02T18:11:05;5.40;99.90
30572;DHT22;17348;50.948;10.696;2023-04-02T18:14:22;5.30;99.90
30572;DHT22;17348;50.948;10.696;2023-04-02T18:17:34;5.30;99.90
30572;DHT22;17348;50.948;10.696;2023-04-02T18:20:44;5.30;99.90
30572;DHT22;17348;50.948;10.696;2023-04-02T18:23:59;5.30;99.90
30572;DHT22;17348;50.948;10.696;2023-04-02T18:27:26;5.30;99.90
30572;DHT22;17348;50.948;10.696;2023-04-02T18:30:35;5.30;99.90
30572;DHT22;17348;50.948;10.696;2023-04-02T18:37:23;5.20;99.90
30572;DHT22;17348;50.948;10.696;2023-04-02T18:40:37;5.20;99.90
30572;DHT22;17348;50.948;10.696;2023-04-02T18:43:52;5.20;99.90
30572;DHT22;17348;50.948;10.696;2023-04-02T18:47:03;5.20;99.90
30572;DHT22;17348;50.948;10.696;2023-04-02T18:50:15;5.20;99.90
30572;DHT22;17348;50.948;10.696;2023-04-02T18:53:21;5.20;99.90
30572;DHT22;17348;50.948;10.696;2023-04-02T18:56:24;5.10;99.90
30572;DHT22;17348;50.948;10.696;2023-04-02T18:59:33;5.20;99.90
30572;DHT22;17348;50.948;10.696;2023-04-02T19:02:41;5.20;99.90
30572;DHT22;17348;50.948;10.696;2023-04-02T19:05:50;5.20;99.90
30572;DHT22;17348;50.948;10.696;2023-04-02T19:08:56;5.20;99.90
30572;DHT22;17348;50.948;10.696;2023-04-02T19:12:00;5.20;99.90
30572;DHT22;17348;50.948;10.696;2023-04-02T19:15:14;5.20;99.90
30572;DHT22;17348;50.948;10.696;2023-04-02T19:18:23;5.20;99.90
30572;DHT22;17348;50.948;10.696;2023-04-02T19:21:35;5.20;99.90
30572;DHT22;17348;50.948;10.696;2023-04-02T19:24:52;5.20;99.90
30572;DHT22;17348;50.948;10.696;2023-04-02T19:28:06;5.20;99.90
30572;DHT22;17348;50.948;10.696;2023-04-02T19:31:33;5.20;99.90
30572;DHT22;17348;50.948;10.696;2023-04-02T19:34:41;5.20;99.90
30572;DHT22;17348;50.948;10.696;2023-04-02T19:37:56;5.20;99.90
30572;DHT22;17348;50.948;10.696;2023-04-02T19:41:04;5.20;99.90
30572;DHT22;17348;50.948;10.696;2023-04-02T19:44:10;5.20;99.90
30572;DHT22;17348;50.948;10.696;2023-04-02T19:47:13;5.30;99.90
30572;DHT22;17348;50.948;10.696;2023-04-02T19:50:17;5.20;99.90
30572;DHT22;17348;50.948;10.696;2023-04-02T19:53:21;5.20;99.90
30572;DHT22;17348;50.948;10.696;2023-04-02T19:56:23;5.20;99.90
30572;DHT22;17348;50.948;10.696;2023-04-02T19:59:25;5.20;99.90
30572;DHT22;17348;50.948;10.696;2023-04-02T20:02:28;5.20;99.90